Time;durP1;ratioP1;P1;durP2;ratioP2;P2;SDS_P1;SDS_P2;PMS_P1;PMS_P2;Temp;Humidity;BMP_temperature;BMP_pressure;BME280_temperature;BME280_humidity;BME280_pressure;Samples;Min_cycle;Max_cycle;Signal;HPM_P1;HPM_P2
2022/06/29 00:01:35;;;;;;;41.88;13.25;;;;;;;;;;4874367;29;20049;-74
2022/06/29 00:04:05;;;;;;;29.23;12.23;;;;;;;;;;4874707;29;20060;-77
2022/06/29 00:06:35;;;;;;;38.65;14.07;;;;;;;;;;4874142;29;20057;-75
2022/06/29 00:09:05;;;;;;;35.10;13.55;;;;;;;;;;4873998;29;20051;-75
2022/06/29 00:11:35;;;;;;;34.65;14.07;;;;;;;;;;4870830;29;20049;-76
2022/06/29 00:14:04;;;;;;;27.67;17.63;;;;;;;;;;4863490;29;20049;-75
2022/06/29 00:16:34;;;;;;;19.02;12.73;;;;;;;;;;4864757;29;20041;-76
2022/06/29 00:19:04;;;;;;;20.05;12.85;;;;;;;;;;4864878;29;20056;-76
2022/06/29 00:21:34;;;;;;;20.40;14.63;;;;;;;;;;4864670;29;20049;-77
2022/06/29 00:24:04;;;;;;;31.88;14.68;;;;;;;;;;4864479;29;20060;-75
2022/06/29 00:26:34;;;;;;;24.88;14.80;;;;;;;;;;4864988;29;20413;-76
2022/06/29 00:29:04;;;;;;;24.77;14.52;;;;;;;;;;4863463;29;20623;-76
2022/06/29 00:31:34;;;;;;;31.13;14.73;;;;;;;;;;4865173;29;20520;-74
2022/06/29 00:34:08;;;;;;;25.40;16.13;;;;;;;;;;4865032;29;20060;-74
2022/06/29 00:36:37;;;;;;;19.08;14.75;;;;;;;;;;4863455;29;20049;-74
2022/06/29 00:39:08;;;;;;;23.20;15.20;;;;;;;;;;4861573;29;20436;-77
2022/06/29 00:41:45;;;;;;;30.33;16.10;;;;;;;;;;4863999;29;20641;-74
2022/06/29 00:44:17;;;;;;;28.23;17.25;;;;;;;;;;4864493;29;20065;-75
2022/06/29 00:46:55;;;;;;;23.13;16.52;;;;;;;;;;4863381;29;20049;-74
2022/06/29 00:49:28;;;;;;;27.15;17.80;;;;;;;;;;4863013;29;20472;-77
2022/06/29 00:52:08;;;;;;;25.05;18.10;;;;;;;;;;4865221;29;20067;-74
2022/06/29 00:54:46;;;;;;;32.05;19.33;;;;;;;;;;4864406;29;20049;-75
2022/06/29 00:57:19;;;;;;;32.00;19.33;;;;;;;;;;4864465;29;20384;-75
2022/06/29 00:59:51;;;;;;;36.42;22.65;;;;;;;;;;4863862;29;20052;-74
2022/06/29 01:02:24;;;;;;;32.83;22.30;;;;;;;;;;4864119;29;20045;-74
2022/06/29 01:04:55;;;;;;;37.22;24.35;;;;;;;;;;4873285;29;20049;-74
2022/06/29 01:07:28;;;;;;;39.95;25.70;;;;;;;;;;4870488;29;20116;-74
2022/06/29 01:10:00;;;;;;;35.72;25.48;;;;;;;;;;4870696;29;20068;-74
2022/06/29 01:12:31;;;;;;;39.88;28.98;;;;;;;;;;4871328;29;20079;-75
2022/06/29 01:15:01;;;;;;;51.67;33.78;;;;;;;;;;4872884;29;20057;-75
2022/06/29 01:17:31;;;;;;;40.35;30.30;;;;;;;;;;4871360;29;20617;-74
2022/06/29 01:20:01;;;;;;;43.13;30.30;;;;;;;;;;4872221;29;20056;-75
2022/06/29 01:22:31;;;;;;;32.88;23.42;;;;;;;;;;4870613;29;20813;-75
2022/06/29 01:25:01;;;;;;;20.70;12.90;;;;;;;;;;4873466;29;20057;-75
2022/06/29 01:27:31;;;;;;;20.45;11.18;;;;;;;;;;4873063;29;20056;-75
2022/06/29 01:30:01;;;;;;;12.50;7.88;;;;;;;;;;4873021;29;20397;-75
2022/06/29 01:32:32;;;;;;;9.43;8.13;;;;;;;;;;4872462;29;20453;-76
2022/06/29 01:35:01;;;;;;;7.18;6.00;;;;;;;;;;4872784;29;20057;-75
2022/06/29 01:37:32;;;;;;;5.35;4.20;;;;;;;;;;4873320;29;20079;-76
2022/06/29 01:40:03;;;;;;;6.85;2.72;;;;;;;;;;4873160;29;20508;-74
2022/06/29 01:42:36;;;;;;;4.90;1.95;;;;;;;;;;4872934;29;20056;-74
2022/06/29 01:45:07;;;;;;;5.38;1.40;;;;;;;;;;4873074;29;20069;-75
2022/06/29 01:47:37;;;;;;;2.00;0.90;;;;;;;;;;4872926;29;20075;-74
2022/06/29 01:50:07;;;;;;;20.65;1.10;;;;;;;;;;4872053;29;20527;-74
2022/06/29 01:52:37;;;;;;;18.38;1.80;;;;;;;;;;4871238;29;20076;-74
2022/06/29 01:55:07;;;;;;;6.43;1.15;;;;;;;;;;4872734;29;20432;-74
2022/06/29 01:57:37;;;;;;;16.13;1.27;;;;;;;;;;4873171;29;20505;-74
2022/06/29 02:00:07;;;;;;;1.88;0.73;;;;;;;;;;4876183;29;20057;-74
2022/06/29 02:02:38;;;;;;;6.18;0.70;;;;;;;;;;4876677;29;20057;-75
2022/06/29 02:05:09;;;;;;;1.88;0.80;;;;;;;;;;4877249;29;20524;-74
2022/06/29 02:07:39;;;;;;;5.55;0.50;;;;;;;;;;4876223;29;20049;-74
2022/06/29 02:10:09;;;;;;;2.72;0.63;;;;;;;;;;4876028;29;20080;-75
2022/06/29 02:12:39;;;;;;;3.60;0.70;;;;;;;;;;4876054;29;20053;-74
2022/06/29 02:15:09;;;;;;;5.57;0.73;;;;;;;;;;4876315;29;20068;-74
2022/06/29 02:17:39;;;;;;;1.50;0.52;;;;;;;;;;4875730;29;20064;-74
2022/06/29 02:20:11;;;;;;;3.33;0.50;;;;;;;;;;4876111;29;20056;-74
2022/06/29 02:22:41;;;;;;;0.38;0.30;;;;;;;;;;4876760;29;20049;-74
2022/06/29 02:25:11;;;;;;;2.55;0.50;;;;;;;;;;4875599;29;20783;-74
2022/06/29 02:27:45;;;;;;;0.40;0.40;;;;;;;;;;4876315;29;20519;-75
2022/06/29 02:30:16;;;;;;;0.82;0.52;;;;;;;;;;4876078;29;20136;-75
2022/06/29 02:35:34;;;;;;;0.70;0.45;;;;;;;;;;4875467;29;20420;-74
2022/06/29 02:38:04;;;;;;;0.40;0.40;;;;;;;;;;4875792;29;20045;-74
2022/06/29 02:40:34;;;;;;;0.50;0.50;;;;;;;;;;4875843;29;20512;-73
2022/06/29 02:43:04;;;;;;;1.88;0.50;;;;;;;;;;4875666;29;20099;-74
2022/06/29 02:45:34;;;;;;;0.50;0.50;;;;;;;;;;4875647;29;20061;-73
2022/06/29 02:48:04;;;;;;;2.17;0.60;;;;;;;;;;4875336;29;20055;-73
2022/06/29 02:50:34;;;;;;;0.45;0.45;;;;;;;;;;4876219;29;20057;-79
2022/06/29 02:53:04;;;;;;;1.15;0.52;;;;;;;;;;4874499;29;20061;-74
2022/06/29 02:55:34;;;;;;;0.50;0.50;;;;;;;;;;4875740;29;20428;-73
2022/06/29 02:58:05;;;;;;;2.38;0.52;;;;;;;;;;4875638;29;20072;-73
2022/06/29 03:00:36;;;;;;;3.25;0.70;;;;;;;;;;4874569;29;20070;-72
2022/06/29 03:03:05;;;;;;;3.40;0.80;;;;;;;;;;4875509;29;20061;-73
2022/06/29 03:05:35;;;;;;;2.05;0.77;;;;;;;;;;4875359;29;20057;-74
2022/06/29 03:08:06;;;;;;;0.80;0.60;;;;;;;;;;4875485;29;20059;-73
2022/06/29 03:10:35;;;;;;;2.40;1.00;;;;;;;;;;4873230;29;20049;-74
2022/06/29 03:13:05;;;;;;;4.03;0.60;;;;;;;;;;4875153;29;20120;-74
2022/06/29 03:15:35;;;;;;;0.60;0.60;;;;;;;;;;4875636;29;20057;-72
2022/06/29 03:18:06;;;;;;;1.90;0.73;;;;;;;;;;4873390;29;20069;-72
2022/06/29 03:20:36;;;;;;;0.57;0.57;;;;;;;;;;4875274;29;20804;-73
2022/06/29 03:23:06;;;;;;;0.60;0.60;;;;;;;;;;4874931;29;20061;-75
2022/06/29 03:25:36;;;;;;;1.30;0.65;;;;;;;;;;4874902;29;20053;-74
2022/06/29 03:28:06;;;;;;;2.15;0.70;;;;;;;;;;4875095;29;20060;-73
2022/06/29 03:30:36;;;;;;;0.80;0.70;;;;;;;;;;4874178;29;20555;-73
2022/06/29 03:33:06;;;;;;;2.28;0.90;;;;;;;;;;4875089;29;20053;-74
2022/06/29 03:35:36;;;;;;;3.20;1.00;;;;;;;;;;4875320;29;20420;-74
2022/06/29 03:38:06;;;;;;;4.18;1.27;;;;;;;;;;4874776;29;20052;-74
2022/06/29 03:40:35;;;;;;;8.35;1.60;;;;;;;;;;4874873;29;20068;-73
2022/06/29 03:43:05;;;;;;;1.52;1.20;;;;;;;;;;4874847;29;20053;-72
2022/06/29 03:45:35;;;;;;;2.08;1.40;;;;;;;;;;4874462;29;20057;-73
2022/06/29 03:48:05;;;;;;;2.60;1.45;;;;;;;;;;4874158;29;20056;-73
2022/06/29 03:50:35;;;;;;;1.65;1.15;;;;;;;;;;4875148;29;20061;-73
2022/06/29 03:53:06;;;;;;;3.25;1.40;;;;;;;;;;4874279;29;20045;-75
2022/06/29 03:55:35;;;;;;;2.25;1.45;;;;;;;;;;4874441;29;20060;-73
2022/06/29 03:58:05;;;;;;;2.10;1.38;;;;;;;;;;4874782;29;20057;-73
2022/06/29 04:00:36;;;;;;;3.33;1.67;;;;;;;;;;4873399;29;20067;-74
2022/06/29 04:03:06;;;;;;;2.20;1.50;;;;;;;;;;4873356;29;20053;-75
2022/06/29 04:05:35;;;;;;;1.40;1.10;;;;;;;;;;4874743;29;20057;-74
2022/06/29 04:08:05;;;;;;;2.65;1.40;;;;;;;;;;4872974;29;20551;-73
2022/06/29 04:10:35;;;;;;;1.17;1.15;;;;;;;;;;4874445;29;20053;-73
2022/06/29 04:13:05;;;;;;;1.38;1.23;;;;;;;;;;4874269;29;20060;-73
2022/06/29 04:15:35;;;;;;;2.22;1.35;;;;;;;;;;4873728;29;20057;-74
2022/06/29 04:18:04;;;;;;;1.45;1.13;;;;;;;;;;4872695;29;20049;-73
2022/06/29 04:23:22;;;;;;;1.00;0.88;;;;;;;;;;4874654;29;20070;-75
2022/06/29 04:25:52;;;;;;;2.67;1.20;;;;;;;;;;4873674;29;20052;-75
2022/06/29 04:28:22;;;;;;;1.98;0.90;;;;;;;;;;4873983;29;20049;-74
2022/06/29 04:30:52;;;;;;;3.72;0.63;;;;;;;;;;4874289;29;20400;-75
2022/06/29 04:33:21;;;;;;;0.40;0.40;;;;;;;;;;4874142;29;20060;-74
2022/06/29 04:35:51;;;;;;;0.45;0.45;;;;;;;;;;4873748;29;20071;-72
2022/06/29 04:38:22;;;;;;;0.20;0.20;;;;;;;;;;4873983;29;20500;-73
2022/06/29 04:40:52;;;;;;;0.13;0.13;;;;;;;;;;4873693;29;20048;-74
2022/06/29 04:43:22;;;;;;;0.10;0.10;;;;;;;;;;4873700;29;20049;-73
2022/06/29 04:48:40;;;;;;;1.10;0.20;;;;;;;;;;4872894;29;20065;-75
2022/06/29 04:51:10;;;;;;;0.25;0.22;;;;;;;;;;4873042;29;20049;-75
2022/06/29 04:53:40;;;;;;;0.38;0.38;;;;;;;;;;4873474;29;20130;-74
2022/06/29 04:56:10;;;;;;;0.93;0.10;;;;;;;;;;4873650;29;20065;-73
2022/06/29 04:58:40;;;;;;;0.13;0.13;;;;;;;;;;4872535;29;20061;-74
2022/06/29 05:01:10;;;;;;;1.30;0.50;;;;;;;;;;4872381;29;20638;-73
2022/06/29 05:03:39;;;;;;;0.40;0.30;;;;;;;;;;4873674;29;20057;-73
2022/06/29 05:06:09;;;;;;;0.90;0.25;;;;;;;;;;4873598;29;20488;-74
2022/06/29 05:08:39;;;;;;;0.10;0.10;;;;;;;;;;4874124;29;20060;-73
2022/06/29 05:11:13;;;;;;;0.28;0.13;;;;;;;;;;4873492;29;20052;-73
2022/06/29 05:13:47;;;;;;;0.20;0.20;;;;;;;;;;4873284;29;20053;-74
2022/06/29 05:16:19;;;;;;;0.52;0.20;;;;;;;;;;4873226;29;20044;-74
2022/06/29 05:18:50;;;;;;;0.15;0.15;;;;;;;;;;4873459;29;20037;-74
2022/06/29 05:21:20;;;;;;;0.20;0.20;;;;;;;;;;4873264;29;20052;-73
2022/06/29 05:23:50;;;;;;;0.20;0.20;;;;;;;;;;4872725;29;20053;-74
2022/06/29 05:26:20;;;;;;;0.47;0.30;;;;;;;;;;4871850;29;20420;-74
2022/06/29 05:28:50;;;;;;;0.47;0.40;;;;;;;;;;4873176;29;20057;-73
2022/06/29 05:31:19;;;;;;;1.45;0.38;;;;;;;;;;4873586;29;20052;-74
2022/06/29 05:33:49;;;;;;;0.47;0.40;;;;;;;;;;4875700;29;20076;-73
2022/06/29 05:36:19;;;;;;;0.50;0.50;;;;;;;;;;4876989;29;20049;-74
2022/06/29 05:38:49;;;;;;;0.45;0.45;;;;;;;;;;4876431;29;20505;-73
2022/06/29 05:41:18;;;;;;;0.80;0.70;;;;;;;;;;4876484;29;20527;-74
2022/06/29 05:43:51;;;;;;;0.60;0.60;;;;;;;;;;4876884;29;20060;-73
2022/06/29 05:46:22;;;;;;;0.47;0.47;;;;;;;;;;4876805;29;20045;-74
2022/06/29 05:48:52;;;;;;;0.40;0.40;;;;;;;;;;4877202;29;20519;-73
2022/06/29 05:51:21;;;;;;;2.40;0.52;;;;;;;;;;4876155;29;20803;-72
2022/06/29 05:53:51;;;;;;;0.63;0.60;;;;;;;;;;4877422;29;20531;-75
2022/06/29 05:56:22;;;;;;;1.15;0.40;;;;;;;;;;4877250;29;20425;-75
2022/06/29 05:58:53;;;;;;;0.30;0.30;;;;;;;;;;4876527;29;20060;-74
2022/06/29 06:01:23;;;;;;;3.33;0.80;;;;;;;;;;4876137;29;20060;-74
2022/06/29 06:03:53;;;;;;;0.40;0.40;;;;;;;;;;4875870;29;20064;-73
2022/06/29 06:06:23;;;;;;;3.22;0.47;;;;;;;;;;4876549;29;20492;-73
2022/06/29 06:08:53;;;;;;;0.73;0.60;;;;;;;;;;4876032;29;20049;-73
2022/06/29 06:11:22;;;;;;;0.63;0.40;;;;;;;;;;4876583;29;20076;-73
2022/06/29 06:13:52;;;;;;;0.30;0.30;;;;;;;;;;4876254;29;20055;-74
2022/06/29 06:16:22;;;;;;;1.35;0.45;;;;;;;;;;4876013;29;20048;-74
2022/06/29 06:19:09;;;;;;;0.40;0.40;;;;;;;;;;4876507;29;20488;-75
2022/06/29 06:21:40;;;;;;;2.15;0.50;;;;;;;;;;4876600;29;20056;-72
2022/06/29 06:24:09;;;;;;;2.03;0.47;;;;;;;;;;4876044;29;20076;-73
2022/06/29 06:26:39;;;;;;;0.50;0.50;;;;;;;;;;4876120;29;20073;-73
2022/06/29 06:29:09;;;;;;;0.70;0.50;;;;;;;;;;4875859;29;20527;-72
2022/06/29 06:31:39;;;;;;;0.60;0.60;;;;;;;;;;4875984;29;20602;-72
2022/06/29 06:34:09;;;;;;;0.47;0.35;;;;;;;;;;4876174;29;20049;-72
2022/06/29 06:36:39;;;;;;;0.52;0.52;;;;;;;;;;4875798;29;20053;-71
2022/06/29 06:39:09;;;;;;;1.15;0.50;;;;;;;;;;4874785;29;20045;-71
2022/06/29 06:41:39;;;;;;;0.40;0.40;;;;;;;;;;4875977;29;20053;-72
2022/06/29 06:44:09;;;;;;;0.38;0.38;;;;;;;;;;4875785;29;20509;-72
2022/06/29 06:46:41;;;;;;;2.40;0.60;;;;;;;;;;4876002;29;20044;-73
2022/06/29 06:49:11;;;;;;;0.40;0.40;;;;;;;;;;4875346;29;20531;-72
2022/06/29 06:51:41;;;;;;;0.43;0.43;;;;;;;;;;4875822;29;20056;-72
2022/06/29 06:54:11;;;;;;;0.77;0.63;;;;;;;;;;4874412;29;20052;-74
2022/06/29 06:56:40;;;;;;;1.65;0.50;;;;;;;;;;4875514;29;20053;-71
2022/06/29 06:59:11;;;;;;;0.40;0.40;;;;;;;;;;4875624;29;20057;-71
2022/06/29 07:01:40;;;;;;;0.63;0.47;;;;;;;;;;4875760;29;20064;-70
2022/06/29 07:04:16;;;;;;;2.58;0.47;;;;;;;;;;4875622;29;20053;-73
2022/06/29 07:06:46;;;;;;;0.60;0.40;;;;;;;;;;4875665;29;20061;-72
2022/06/29 07:09:16;;;;;;;0.50;0.50;;;;;;;;;;4875472;29;20532;-74
2022/06/29 07:11:46;;;;;;;2.83;0.60;;;;;;;;;;4875271;29;20424;-73
2022/06/29 07:14:16;;;;;;;0.40;0.40;;;;;;;;;;4874243;29;20060;-73
2022/06/29 07:16:46;;;;;;;;;;;;;;;;;;4874880;29;20065;-73
2022/06/29 07:19:16;;;;;;;0.40;0.40;;;;;;;;;;4875021;29;19939;-74
2022/06/29 07:21:46;;;;;;;0.40;0.40;;;;;;;;;;4875129;29;20064;-75
2022/06/29 07:24:16;;;;;;;0.30;0.30;;;;;;;;;;4875105;29;20049;-74
2022/06/29 07:26:46;;;;;;;0.95;0.70;;;;;;;;;;4875516;29;20160;-74
2022/06/29 07:29:16;;;;;;;0.85;0.52;;;;;;;;;;4875090;29;20080;-74
2022/06/29 07:31:45;;;;;;;0.70;0.70;;;;;;;;;;4875237;29;20512;-73
2022/06/29 07:34:15;;;;;;;0.57;0.57;;;;;;;;;;4875033;29;20508;-75
2022/06/29 07:36:45;;;;;;;1.23;0.60;;;;;;;;;;4874902;29;20053;-73
2022/06/29 07:39:15;;;;;;;0.70;0.55;;;;;;;;;;4874748;29;20076;-72
2022/06/29 07:41:45;;;;;;;0.55;0.43;;;;;;;;;;4874714;29;20056;-71
2022/06/29 07:44:14;;;;;;;0.30;0.30;;;;;;;;;;4873402;29;20556;-73
2022/06/29 07:46:44;;;;;;;0.40;0.40;;;;;;;;;;4874680;29;20057;-72
2022/06/29 07:49:14;;;;;;;1.35;0.35;;;;;;;;;;4858333;29;20056;-72
2022/06/29 07:51:44;;;;;;;5.47;0.63;;;;;;;;;;4874880;29;20056;-71
2022/06/29 07:54:14;;;;;;;1.35;0.90;;;;;;;;;;4874696;29;20485;-72
2022/06/29 07:56:44;;;;;;;1.13;0.30;;;;;;;;;;4874696;29;20422;-72
2022/06/29 07:59:34;;;;;;;1.48;0.20;;;;;;;;;;4874344;29;20061;-73
2022/06/29 08:02:05;;;;;;;0.43;0.43;;;;;;;;;;4874392;29;20057;-72
2022/06/29 08:04:35;;;;;;;0.20;0.20;;;;;;;;;;4872997;29;20061;-72
2022/06/29 08:07:25;;;;;;;0.25;0.25;;;;;;;;;;4874246;29;20444;-70
2022/06/29 08:09:55;;;;;;;1.92;0.40;;;;;;;;;;4874323;29;20048;-73
2022/06/29 08:12:25;;;;;;;0.30;0.30;;;;;;;;;;4874130;29;20500;-71
2022/06/29 08:14:54;;;;;;;1.08;0.43;;;;;;;;;;4874634;29;20053;-71
2022/06/29 08:17:24;;;;;;;0.40;0.40;;;;;;;;;;4874140;29;20049;-71
2022/06/29 08:20:03;;;;;;;1.02;0.28;;;;;;;;;;4874322;29;20412;-73
2022/06/29 08:22:33;;;;;;;0.57;0.30;;;;;;;;;;4874448;29;20120;-72
2022/06/29 08:25:04;;;;;;;0.75;0.20;;;;;;;;;;4874168;29;20048;-72
2022/06/29 08:27:34;;;;;;;1.25;0.20;;;;;;;;;;4874162;29;20067;-72
2022/06/29 08:30:14;;;;;;;0.60;0.25;;;;;;;;;;4873868;29;20052;-73
2022/06/29 08:32:44;;;;;;;0.65;0.47;;;;;;;;;;4873819;29;20504;-73
2022/06/29 08:35:16;;;;;;;0.30;0.30;;;;;;;;;;4873418;29;20072;-73
2022/06/29 08:37:47;;;;;;;0.22;0.22;;;;;;;;;;4873857;29;20509;-73
2022/06/29 08:40:18;;;;;;;0.80;0.30;;;;;;;;;;4873911;29;20048;-71
2022/06/29 08:42:48;;;;;;;0.40;0.20;;;;;;;;;;4874292;29;20049;-72
2022/06/29 08:45:20;;;;;;;4.57;0.40;;;;;;;;;;4873424;29;20412;-72
2022/06/29 08:47:50;;;;;;;0.20;0.17;;;;;;;;;;4874029;29;20057;-71
2022/06/29 08:50:21;;;;;;;2.00;0.28;;;;;;;;;;4873326;29;20048;-72
2022/06/29 08:52:51;;;;;;;2.60;0.20;;;;;;;;;;4871997;29;20060;-72
2022/06/29 08:55:23;;;;;;;0.13;0.13;;;;;;;;;;4873770;29;20056;-72
2022/06/29 08:57:53;;;;;;;0.32;0.32;;;;;;;;;;4873380;29;20056;-71
2022/06/29 09:00:24;;;;;;;0.40;0.20;;;;;;;;;;4873413;29;20060;-73
2022/06/29 09:02:54;;;;;;;2.40;0.25;;;;;;;;;;4873239;29;20595;-73
2022/06/29 09:05:24;;;;;;;0.93;0.20;;;;;;;;;;4873842;29;20060;-72
2022/06/29 09:07:53;;;;;;;0.28;0.28;;;;;;;;;;4872648;29;20053;-72
2022/06/29 09:10:24;;;;;;;0.57;0.10;;;;;;;;;;4873532;29;20520;-72
2022/06/29 09:12:53;;;;;;;0.40;0.20;;;;;;;;;;4871990;29;20064;-72
2022/06/29 09:15:35;;;;;;;0.30;0.20;;;;;;;;;;4873351;29;20060;-73
2022/06/29 09:18:23;;;;;;;0.20;0.20;;;;;;;;;;4873125;29;20533;-73
2022/06/29 09:20:56;;;;;;;3.80;0.50;;;;;;;;;;4872488;29;20060;-72
2022/06/29 09:23:28;;;;;;;1.77;0.43;;;;;;;;;;4873030;29;20083;-72
2022/06/29 09:25:58;;;;;;;0.77;0.40;;;;;;;;;;4872953;29;20061;-73
2022/06/29 09:28:34;;;;;;;1.90;1.50;;;;;;;;;;4873511;29;20412;-73
2022/06/29 09:31:07;;;;;;;1.75;0.73;;;;;;;;;;4871750;29;20045;-73
2022/06/29 09:33:38;;;;;;;1.25;0.50;;;;;;;;;;4873075;29;20405;-73
2022/06/29 09:36:14;;;;;;;0.50;0.50;;;;;;;;;;4872877;29;20068;-74
2022/06/29 09:38:44;;;;;;;4.25;1.38;;;;;;;;;;4872783;29;20053;-73
2022/06/29 09:41:15;;;;;;;1.05;0.65;;;;;;;;;;4873125;29;20057;-78
2022/06/29 09:43:46;;;;;;;1.50;0.47;;;;;;;;;;4872934;29;20079;-75
2022/06/29 09:46:17;;;;;;;0.40;0.40;;;;;;;;;;4872845;29;20064;-75
2022/06/29 09:48:48;;;;;;;0.52;0.52;;;;;;;;;;4872961;29;20857;-73
2022/06/29 09:51:31;;;;;;;0.82;0.65;;;;;;;;;;4872626;29;20061;-73
2022/06/29 09:54:05;;;;;;;3.63;2.78;;;;;;;;;;4873162;29;20056;-74
2022/06/29 09:56:41;;;;;;;0.60;0.60;;;;;;;;;;4873062;29;20527;-74
2022/06/29 09:59:21;;;;;;;4.03;0.80;;;;;;;;;;4872426;29;20060;-72
2022/06/29 10:04:40;;;;;;;0.60;0.60;;;;;;;;;;4872780;29;20057;-74
2022/06/29 10:07:11;;;;;;;1.98;0.90;;;;;;;;;;4872421;29;20052;-72
2022/06/29 10:09:42;;;;;;;1.50;1.05;;;;;;;;;;4872794;29;20056;-73
2022/06/29 10:15:22;;;;;;;1.80;1.00;;;;;;;;;;4872194;29;20052;-74
2022/06/29 10:18:19;;;;;;;1.83;1.40;;;;;;;;;;4871382;29;20053;-74
2022/06/29 10:20:51;;;;;;;2.13;1.73;;;;;;;;;;4876030;29;20064;-74
2022/06/29 10:23:39;;;;;;;;;;;;;;;;;;4877351;29;20079;-74
2022/06/29 10:26:36;;;;;;;9.07;1.88;;;;;;;;;;4876007;29;20442;-73
2022/06/29 10:29:06;;;;;;;5.72;1.60;;;;;;;;;;4875644;29;20051;-72
2022/06/29 10:31:51;;;;;;;2.90;1.38;;;;;;;;;;4875808;29;20056;-77
2022/06/29 10:34:31;;;;;;;1.40;1.30;;;;;;;;;;4875575;29;20037;-74
2022/06/29 10:37:04;;;;;;;4.45;1.83;;;;;;;;;;4875456;29;20738;-74
2022/06/29 10:39:49;;;;;;;3.15;1.50;;;;;;;;;;4874654;29;20053;-73
2022/06/29 10:45:16;;;;;;;;;;;;;;;;;;4876034;29;20428;-73
2022/06/29 10:47:55;;;;;;;2.55;1.75;;;;;;;;;;4876654;29;19928;-73
2022/06/29 10:50:27;;;;;;;4.25;2.00;;;;;;;;;;4875808;29;20052;-76
2022/06/29 10:53:10;;;;;;;2.55;1.63;;;;;;;;;;4874988;29;20049;-74
2022/06/29 10:55:48;;;;;;;3.15;1.85;;;;;;;;;;4875631;29;20041;-73
2022/06/29 10:58:19;;;;;;;3.92;2.40;;;;;;;;;;4875838;29;20056;-74
2022/06/29 11:00:54;;;;;;;1.90;1.70;;;;;;;;;;4875964;29;20053;-74
2022/06/29 11:03:26;;;;;;;3.50;3.03;;;;;;;;;;4875060;29;20045;-75
2022/06/29 11:12:04;;;;;;;2.40;2.10;;;;;;;;;;4875880;29;20056;-73
2022/06/29 11:17:41;;;;;;;2.47;1.73;;;;;;;;;;4875422;29;20053;-74
2022/06/29 11:20:22;;;;;;;3.75;2.53;;;;;;;;;;4874895;29;20053;-73
2022/06/29 11:22:53;;;;;;;2.25;2.03;;;;;;;;;;4875593;29;20413;-75
2022/06/29 11:25:23;;;;;;;2.97;1.83;;;;;;;;;;4875415;29;20045;-75
2022/06/29 11:27:53;;;;;;;9.80;5.63;;;;;;;;;;4875362;29;20060;-74
2022/06/29 11:30:24;;;;;;;3.72;2.55;;;;;;;;;;4874235;29;20049;-74
2022/06/29 11:32:55;;;;;;;2.42;1.90;;;;;;;;;;4874961;29;20053;-75
2022/06/29 11:35:26;;;;;;;4.32;2.28;;;;;;;;;;4875113;29;20052;-75
2022/06/29 11:38:01;;;;;;;5.28;2.45;;;;;;;;;;4874852;29;20056;-73
2022/06/29 11:40:36;;;;;;;4.35;3.10;;;;;;;;;;4874853;29;20053;-73
2022/06/29 11:43:16;;;;;;;3.00;2.53;;;;;;;;;;4874822;29;20049;-75
2022/06/29 11:45:47;;;;;;;3.92;2.97;;;;;;;;;;4875281;29;20514;-74
2022/06/29 11:48:21;;;;;;;4.00;3.00;;;;;;;;;;4874879;29;20052;-74
2022/06/29 11:50:57;;;;;;;7.57;3.38;;;;;;;;;;4874265;29;20531;-75
2022/06/29 11:53:43;;;;;;;5.03;3.50;;;;;;;;;;4874567;29;20045;-76
2022/06/29 11:56:14;;;;;;;3.38;2.85;;;;;;;;;;4874567;29;20063;-74
2022/06/29 11:58:48;;;;;;;;;;;;;;;;;;4875050;29;20515;-73
2022/06/29 12:01:24;;;;;;;3.58;3.05;;;;;;;;;;4873122;29;19927;-75
2022/06/29 12:03:56;;;;;;;11.93;4.20;;;;;;;;;;4874675;29;20053;-75
2022/06/29 12:06:28;;;;;;;6.28;4.72;;;;;;;;;;4874461;29;20040;-75
2022/06/29 12:08:59;;;;;;;8.38;4.82;;;;;;;;;;4874203;29;20064;-74
2022/06/29 12:11:29;;;;;;;5.95;4.47;;;;;;;;;;4873972;29;20057;-74
2022/06/29 12:13:58;;;;;;;8.15;5.40;;;;;;;;;;4873142;29;20417;-76
2022/06/29 12:16:28;;;;;;;9.77;4.25;;;;;;;;;;4874715;29;20068;-73
2022/06/29 12:18:58;;;;;;;7.82;4.22;;;;;;;;;;4874018;29;20053;-74
2022/06/29 12:21:28;;;;;;;9.13;5.20;;;;;;;;;;4873905;29;20053;-74
2022/06/29 12:24:01;;;;;;;7.55;5.75;;;;;;;;;;4873705;29;20073;-76
2022/06/29 12:26:33;;;;;;;7.93;5.55;;;;;;;;;;4873656;29;20501;-75
2022/06/29 12:29:03;;;;;;;12.32;6.68;;;;;;;;;;4873439;29;20041;-74
2022/06/29 12:31:35;;;;;;;9.45;5.43;;;;;;;;;;4873798;29;20057;-75
2022/06/29 12:34:05;;;;;;;5.22;3.53;;;;;;;;;;4874079;29;20044;-75
2022/06/29 12:36:55;;;;;;;8.75;6.20;;;;;;;;;;4873913;29;20412;-74
2022/06/29 12:39:25;;;;;;;10.77;5.95;;;;;;;;;;4874654;29;20413;-74
2022/06/29 12:41:55;;;;;;;9.07;6.65;;;;;;;;;;4873578;29;20053;-74
2022/06/29 12:44:26;;;;;;;8.63;6.25;;;;;;;;;;4873431;29;20064;-73
2022/06/29 12:46:56;;;;;;;7.05;5.53;;;;;;;;;;4873552;29;20041;-75
2022/06/29 12:49:26;;;;;;;7.30;4.72;;;;;;;;;;4873480;29;20866;-74
2022/06/29 12:51:56;;;;;;;9.48;6.10;;;;;;;;;;4873729;29;20052;-74
2022/06/29 12:54:26;;;;;;;9.15;6.85;;;;;;;;;;4873578;29;20059;-74
2022/06/29 12:56:55;;;;;;;8.90;6.97;;;;;;;;;;4873447;29;20053;-73
2022/06/29 12:59:25;;;;;;;9.50;6.05;;;;;;;;;;4873987;29;20049;-75
2022/06/29 13:01:55;;;;;;;9.20;6.47;;;;;;;;;;4873756;29;20421;-78
2022/06/29 13:04:25;;;;;;;11.00;6.85;;;;;;;;;;4873819;29;20049;-74
2022/06/29 13:06:55;;;;;;;10.70;5.90;;;;;;;;;;4873744;29;20048;-75
2022/06/29 13:09:25;;;;;;;9.60;6.10;;;;;;;;;;4873670;29;20053;-74
2022/06/29 13:11:55;;;;;;;8.52;6.22;;;;;;;;;;4873627;29;20063;-74
2022/06/29 13:14:25;;;;;;;8.05;5.80;;;;;;;;;;4873206;29;20053;-74
2022/06/29 13:16:55;;;;;;;9.15;6.97;;;;;;;;;;4873471;29;20076;-74
2022/06/29 13:19:25;;;;;;;8.85;5.30;;;;;;;;;;4873054;29;20053;-74
2022/06/29 13:21:55;;;;;;;8.35;6.47;;;;;;;;;;4871412;29;20064;-74
2022/06/29 13:24:25;;;;;;;10.02;6.68;;;;;;;;;;4873598;29;20052;-73
2022/06/29 13:26:56;;;;;;;6.97;5.45;;;;;;;;;;4873170;29;20072;-73
2022/06/29 13:29:27;;;;;;;8.48;5.15;;;;;;;;;;4872075;29;20065;-74
2022/06/29 13:31:59;;;;;;;6.05;4.93;;;;;;;;;;4871812;29;20061;-74
2022/06/29 13:34:30;;;;;;;8.60;5.82;;;;;;;;;;4873412;29;20069;-75
2022/06/29 13:36:59;;;;;;;6.57;5.13;;;;;;;;;;4873163;29;20527;-74
2022/06/29 13:39:29;;;;;;;6.68;5.60;;;;;;;;;;4872963;29;20064;-74
2022/06/29 13:42:00;;;;;;;6.55;5.90;;;;;;;;;;4872937;29;20056;-75
2022/06/29 13:44:31;;;;;;;6.45;5.28;;;;;;;;;;4872630;29;20535;-74
2022/06/29 13:47:01;;;;;;;;;;;;;;;;;;4873703;29;20509;-74
2022/06/29 13:49:31;;;;;;;5.85;4.82;;;;;;;;;;4873671;29;20349;-74
2022/06/29 13:52:02;;;;;;;7.78;5.40;;;;;;;;;;4873616;29;20049;-74
2022/06/29 13:54:31;;;;;;;5.93;5.07;;;;;;;;;;4874484;29;20064;-77
2022/06/29 13:57:02;;;;;;;8.05;5.38;;;;;;;;;;4876567;29;20053;-73
2022/06/29 13:59:32;;;;;;;8.73;5.40;;;;;;;;;;4876450;29;20052;-74
2022/06/29 14:02:04;;;;;;;9.33;5.00;;;;;;;;;;4876523;29;20049;-74
2022/06/29 14:04:34;;;;;;;5.05;4.55;;;;;;;;;;4876573;29;20057;-74
2022/06/29 14:07:04;;;;;;;5.93;4.50;;;;;;;;;;4876908;29;20485;-73
2022/06/29 14:09:54;;;;;;;7.10;5.45;;;;;;;;;;4876827;29;20057;-73
2022/06/29 14:12:24;;;;;;;7.25;5.40;;;;;;;;;;4877350;29;20053;-72
2022/06/29 14:14:55;;;;;;;6.53;5.00;;;;;;;;;;4882069;29;20055;-73
2022/06/29 14:17:24;;;;;;;10.98;5.10;;;;;;;;;;4880700;29;20056;-75
2022/06/29 14:19:54;;;;;;;7.63;5.05;;;;;;;;;;4876227;29;20064;-74
2022/06/29 14:22:24;;;;;;;5.70;4.75;;;;;;;;;;4875650;29;20052;-76
2022/06/29 14:24:55;;;;;;;5.70;4.43;;;;;;;;;;4875580;29;20061;-76
2022/06/29 14:27:25;;;;;;;7.75;5.00;;;;;;;;;;4876550;29;20057;-74
2022/06/29 14:29:55;;;;;;;10.17;5.10;;;;;;;;;;4876020;29;20158;-73
2022/06/29 14:32:26;;;;;;;10.40;4.55;;;;;;;;;;4876243;29;20060;-74
2022/06/29 14:34:57;;;;;;;6.93;4.35;;;;;;;;;;4876418;29;20057;-74
2022/06/29 14:37:27;;;;;;;6.78;4.85;;;;;;;;;;4876222;29;20636;-73
2022/06/29 14:39:57;;;;;;;13.63;4.32;;;;;;;;;;4875678;29;20805;-74
2022/06/29 14:42:27;;;;;;;15.00;6.80;;;;;;;;;;4875185;29;20079;-73
2022/06/29 14:44:57;;;;;;;5.80;4.30;;;;;;;;;;4875780;29;20057;-75
2022/06/29 14:47:27;;;;;;;11.13;4.63;;;;;;;;;;4875638;29;20415;-73
2022/06/29 14:49:58;;;;;;;;;;;;;;;;;;4876166;29;20474;-73
2022/06/29 14:52:28;;;;;;;9.07;4.50;;;;;;;;;;4875548;29;19928;-74
2022/06/29 14:54:59;;;;;;;;;;;;;;;;;;4876403;29;20188;-73
2022/06/29 14:57:30;;;;;;;4.30;3.42;;;;;;;;;;4875747;29;20462;-72
2022/06/29 14:59:59;;;;;;;12.75;4.82;;;;;;;;;;4875843;29;20064;-74
2022/06/29 15:02:29;;;;;;;5.10;4.03;;;;;;;;;;4875475;29;20063;-74
2022/06/29 15:04:59;;;;;;;10.20;4.13;;;;;;;;;;4873702;29;20429;-77
2022/06/29 15:07:29;;;;;;;7.82;3.53;;;;;;;;;;4874991;29;20052;-74
2022/06/29 15:10:00;;;;;;;3.97;3.42;;;;;;;;;;4875309;29;20045;-74
2022/06/29 15:12:31;;;;;;;4.43;3.50;;;;;;;;;;4875372;29;20072;-75
2022/06/29 15:15:01;;;;;;;8.63;3.23;;;;;;;;;;4875329;29;20390;-73
2022/06/29 15:17:31;;;;;;;8.88;4.50;;;;;;;;;;4875393;29;20059;-73
2022/06/29 15:20:01;;;;;;;3.38;3.05;;;;;;;;;;4874747;29;20425;-73
2022/06/29 15:22:31;;;;;;;3.88;2.97;;;;;;;;;;4874875;29;20052;-73
2022/06/29 15:25:01;;;;;;;2.30;2.10;;;;;;;;;;4875024;29;20493;-74
2022/06/29 15:27:31;;;;;;;3.63;2.60;;;;;;;;;;4875107;29;20053;-76
2022/06/29 15:30:01;;;;;;;4.18;2.88;;;;;;;;;;4876135;29;20083;-74
2022/06/29 15:32:31;;;;;;;3.17;2.15;;;;;;;;;;4874996;29;20049;-74